M I D A S
Marine Information and Data Acquisition System
Tripno 2330 of the Zeeleeuw from 2012-06-15 05:49:47 to 2012-06-15 12:38:19
Back to CruiseResearch ActivitiesStationsMapUnderway DataData graphs

EquipmentUnitsComment
TimeDGPSUTC
LatitudeDGPSDM.mWGS84
LongitudeDGPSDM.mWGS84
TemperatureSBE03/SBE38deg celciusITS90
ConductivitySBE21S/mITS90
SalinitySBE21 Practical Salinity Units
ChlorophylAChelsea fluorimeterg/lCalibrated in Aceton
Missing or incorrect values are displayed as -999
Sea surface data collected by the RV Zeeleeuw from 2012-06-15 05:20:34 to 2012-06-15 12:57:41
Time Latitude Longitude Temperature Conductivity Salinity ChlorophylA
2012-06-15 05:21:38 51°13.632 2°56.013 21.612 0.073452 0.401403 -2.458615
2012-06-15 05:22:37 51°13.632 2°56.013 21.6158 0.073349 0.400822 -2.458615
2012-06-15 05:23:39 51°13.632 2°56.015 21.6213 0.073555 0.401998 -2.458615
2012-06-15 05:24:39 51°13.632 2°56.016 21.6251 0.073452 0.401424 -2.458615
2012-06-15 05:25:39 51°13.633 2°56.014 21.6348 0.073452 0.401438 -2.458615
2012-06-15 05:26:39 51°13.632 2°56.014 21.6469 0.073658 0.402607 -2.458615
2012-06-15 05:27:39 51°13.632 2°56.014 21.6465 0.073658 0.402615 -2.458615
2012-06-15 05:28:38 51°13.632 2°56.014 21.6506 0.073555 0.402048 -2.458615
2012-06-15 05:29:39 51°13.632 2°56.015 21.6533 0.073555 0.402062 -2.458615
2012-06-15 05:30:38 51°13.631 2°56.015 21.6549 0.073658 0.40265 -2.458615
2012-06-15 05:31:37 51°13.632 2°56.015 21.6575 0.073658 0.402657 -2.458615
2012-06-15 05:32:38 51°13.632 2°56.015 21.6602 0.073555 0.40209 -2.458615
2012-06-15 05:33:39 51°13.632 2°56.014 21.6691 0.073658 0.402679 -2.458615
2012-06-15 05:34:37 51°13.632 2°56.015 21.6763 0.07376 0.403274 -2.458615
2012-06-15 05:35:37 51°13.631 2°56.016 21.6799 0.073658 0.4027 -2.458615
2012-06-15 05:36:38 51°13.633 2°56.015 21.6844 0.073452 0.401552 -2.458615
2012-06-15 05:37:38 51°13.633 2°56.014 21.6924 0.073349 0.400985 -2.458615
2012-06-15 05:38:38 51°13.632 2°56.014 21.7239 0.07376 0.403324 -2.458615
2012-06-15 05:39:39 51°13.633 2°55.999 21.5953 0.072012 0.393454 -2.458615
2012-06-15 05:40:38 51°13.651 2°55.912 21.7137 0.070676 0.385938 -2.458615
2012-06-15 05:41:39 51°13.684 2°55.818 21.7067 0.072527 0.396407 -2.458615
2012-06-15 05:42:38 51°13.737 2°55.748 21.6827 0.072012 0.393524 -2.458615
2012-06-15 05:43:39 51°13.8 2°55.674 21.7166 0.073452 0.401665 -2.458615
2012-06-15 05:44:38 51°13.87 2°55.616 21.7197 0.072424 0.395896 -2.458615
2012-06-15 05:45:38 51°13.93 2°55.599 21.7386 0.07191 0.392999 -2.458615
2012-06-15 05:46:38 51°13.968 2°55.617 21.7709 0.070265 0.383713 -2.458615
2012-06-15 05:47:39 51°13.995 2°55.548 21.5838 0.08178 0.44909 -2.458615
2012-06-15 05:48:38 51°14.098 2°55.449 21.585 0.068003 0.371023 -2.458615
2012-06-15 05:49:38 51°14.235 2°55.326 21.5193 0.066872 0.364695 -2.458615
2012-06-15 05:50:38 51°14.384 2°55.185 21.4643 0.065432 0.35665 -2.458615
2012-06-15 05:51:37 51°14.538 2°55.025 21.3929 0.066666 0.363609 -2.458615
2012-06-15 05:52:37 51°14.709 2°54.899 21.3389 0.071293 0.389832 -2.458615
2012-06-15 05:53:35 51°14.858 2°54.71 21.3826 0.06975 0.381629 -2.458615
2012-06-15 05:54:35 51°14.979 2°54.453 21.3197 0.071601 0.392095 -2.458615
2012-06-15 05:55:34 51°15.111 2°54.224 21.3423 0.06646 0.363329 -2.458615
2012-06-15 05:56:34 51°15.259 2°54.017 21.2845 0.080444 0.443005 -2.458615
2012-06-15 05:57:34 51°15.43 2°53.856 21.3183 0.065227 0.356676 -2.458615
2012-06-15 05:58:35 51°15.602 2°53.687 21.222 0.088669 0.490288 -2.458615
2012-06-15 05:59:35 51°15.769 2°53.514 21.3239 0.077051 0.424198 -2.458615
2012-06-15 06:00:35 51°15.941 2°53.36 21.3705 0.068414 0.375248 -2.458615
2012-06-15 06:01:35 51°16.115 2°53.207 21.3232 0.06862 0.376239 -2.458615
2012-06-15 06:02:35 51°16.289 2°53.048 21.3276 0.066769 0.365749 -2.458615
2012-06-15 06:03:35 51°16.458 2°52.885 21.3421 0.072835 0.400217 -2.458615
2012-06-15 06:04:35 51°16.635 2°52.75 21.333 0.085071 0.470118 -2.458615
2012-06-15 06:05:35 51°16.807 2°52.611 21.3548 0.065946 0.361389 -2.458615
2012-06-15 06:06:35 51°16.982 2°52.49 21.3537 0.082706 0.45681 -2.458615
2012-06-15 06:07:35 51°17.166 2°52.414 21.3617 0.073555 0.404559 -2.458615
2012-06-15 06:08:35 51°17.355 2°52.379 21.3623 0.062656 0.342734 -2.458615
2012-06-15 06:09:35 51°17.545 2°52.357 21.3773 0.074686 0.410995 -2.458615
2012-06-15 06:10:35 51°17.733 2°52.321 21.3817 0.067591 0.370604 -2.458615
2012-06-15 06:11:35 51°17.921 2°52.261 21.3896 0.065021 0.356039 -2.458615
2012-06-15 06:12:35 51°18.11 2°52.203 21.3838 0.070779 0.388515 -2.458615
2012-06-15 06:13:35 51°18.3 2°52.146 21.3864 0.073041 0.401457 -2.458615
2012-06-15 06:14:35 51°18.492 2°52.101 21.4076 0.073143 0.402156 -2.458615
2012-06-15 06:15:35 51°18.682 2°52.049 21.4012 0.069956 0.383919 -2.458615
2012-06-15 06:16:35 51°18.877 2°52.012 21.4216 0.06646 0.364199 -2.458615
2012-06-15 06:17:35 51°19.068 2°51.945 21.4153 0.072218 0.396988 -2.458615
2012-06-15 06:18:35 51°19.261 2°51.884 21.4175 0.074377 0.408875 -2.458615
2012-06-15 06:19:35 51°19.454 2°51.829 21.4117 0.07119 0.390946 -2.458615
2012-06-15 06:20:35 51°19.646 2°51.774 21.4184 0.06718 0.368237 -2.458615
2012-06-15 06:21:35 51°19.839 2°51.721 21.4323 0.068928 0.37816 -2.458615
2012-06-15 06:22:35 51°20.035 2°51.69 21.4329 0.077153 0.42495 -2.458615
2012-06-15 06:23:35 51°20.231 2°51.673 21.4207 0.100494 0.559211 -2.458615
2012-06-15 06:24:35 51°20.426 2°51.654 21.4353 0.08723 0.482876 -2.458615
2012-06-15 06:25:35 51°20.623 2°51.639 21.456 0.074275 0.408895 -2.458615
2012-06-15 06:26:35 51°20.817 2°51.607 21.4542 0.077051 0.42444 -2.458615
2012-06-15 06:27:35 51°21.012 2°51.57 21.4608 0.069853 0.383446 -2.458615
2012-06-15 06:28:35 51°21.21 2°51.551 21.4571 0.071293 0.39171 -2.458615
2012-06-15 06:29:35 51°21.408 2°51.546 21.475 0.077462 0.426938 -2.458615
2012-06-15 06:30:35 51°21.608 2°51.524 21.4848 0.07849 0.432707 -2.458615
2012-06-15 06:31:35 51°21.807 2°51.493 21.4807 0.069031 0.378944 -2.458615
2012-06-15 06:32:35 51°22.009 2°51.481 21.4948 0.074891 0.412254 -2.458615
2012-06-15 06:33:35 51°22.206 2°51.457 21.4824 0.070367 0.386643 -2.458615
2012-06-15 06:34:35 51°22.403 2°51.426 17.0395 0.061422 0.33592 -2.458615
2012-06-15 06:35:35 51°22.599 2°51.402 15.4154 0.067694 0.371529 -2.458615
2012-06-15 06:36:35 51°22.796 2°51.381 15.2639 0.076228 0.420065 -2.458615
2012-06-15 06:37:35 51°22.994 2°51.352 15.2 0.087435 0.483979 -2.458615
2012-06-15 06:38:35 51°23.188 2°51.328 15.1357 0.094016 0.521889 -2.458615
2012-06-15 06:39:35 51°23.378 2°51.305 15.0783 0.101419 0.564905 -2.458615
2012-06-15 06:40:35 51°23.568 2°51.266 15.0886 0.111085 0.621149 -2.458615
2012-06-15 06:41:35 51°23.76 2°51.245 15.0703 0.125686 0.706567 -2.458615
2012-06-15 06:42:35 51°23.954 2°51.236 15.0827 0.137409 0.775569 -2.458615
2012-06-15 06:43:35 51°24.148 2°51.217 15.072 0.146355 0.828469 -2.458615
2012-06-15 06:44:35 51°24.345 2°51.204 15.0569 0.153862 0.872993 -2.458615
2012-06-15 06:45:35 51°24.542 2°51.192 15.051 0.165379 0.941599 -2.458615
2012-06-15 06:46:35 51°24.736 2°51.156 15.0463 0.171241 0.976623 -2.458615
2012-06-15 06:47:35 51°24.932 2°51.136 15.0137 0.867503 5.468609 -2.458615
2012-06-15 06:48:35 51°25.13 2°51.131 15.0021 4.068383 32.726215 -2.458615
2012-06-15 06:49:35 51°25.326 2°51.131 14.9994 4.057915 32.66538 -2.458615
2012-06-15 06:50:35 51°25.523 2°51.154 15.0049 4.051696 32.619881 -2.458615
2012-06-15 06:51:35 51°25.723 2°51.184 14.997 4.053873 32.640809 -2.458615
2012-06-15 06:52:35 51°25.925 2°51.19 14.9904 4.053562 32.644227 -2.458615
2012-06-15 06:53:35 51°26.126 2°51.195 14.9786 4.056568 32.680213 -2.458615
2012-06-15 06:54:35 51°26.325 2°51.208 14.9618 4.059885 32.721096 -2.458615
2012-06-15 06:55:35 51°26.526 2°51.211 14.9499 4.057397 32.715345 -2.458615
2012-06-15 06:56:35 51°26.727 2°51.234 14.9478 4.059989 32.748361 -2.458615
2012-06-15 06:57:35 51°26.927 2°51.259 14.9025 4.0603 32.758098 -2.458615
2012-06-15 06:58:35 51°27.124 2°51.263 14.8127 4.065172 32.849975 -2.458615
2012-06-15 06:59:35 51°27.32 2°51.273 14.7552 4.063722 32.90744 -2.458615
2012-06-15 07:00:35 51°27.515 2°51.288 14.7277 4.061546 32.92771 -2.458615
2012-06-15 07:01:35 51°27.708 2°51.257 14.6994 4.060614 32.947353 -2.458615
2012-06-15 07:02:35 51°27.896 2°51.169 14.6858 4.069839 33.049913 -2.458615
2012-06-15 07:03:35 51°28.087 2°51.088 14.6849 4.069424 33.058151 -2.458615
2012-06-15 07:04:35 51°28.278 2°51.016 14.6688 4.068388 33.055108 -2.458615
2012-06-15 07:05:35 51°28.473 2°50.952 14.67 4.070875 33.086848 -2.458615
2012-06-15 07:06:35 51°28.67 2°50.907 14.6673 4.071705 33.093662 -2.458615
2012-06-15 07:07:35 51°28.867 2°50.866 14.6684 4.072741 33.1066 -2.458615
2012-06-15 07:08:35 51°29.068 2°50.886 14.6779 4.072845 33.106126 -2.458615
2012-06-15 07:09:35 51°29.265 2°50.953 14.669 4.073467 33.10823 -2.458615
2012-06-15 07:10:35 51°29.461 2°51.015 14.6553 4.079375 33.170328 -2.458615
2012-06-15 07:11:35 51°29.659 2°51.059 14.6481 4.08207 33.20472 -2.458615
2012-06-15 07:12:35 51°29.859 2°51.09 14.6313 4.081448 33.209013 -2.458615
2012-06-15 07:13:35 51°30.055 2°51.146 14.5881 4.080515 33.211195 -2.458615
2012-06-15 07:14:35 51°30.249 2°51.23 14.5366 4.082796 33.27819 -2.458615
2012-06-15 07:15:35 51°30.439 2°51.31 14.4813 4.083108 33.323152 -2.458615
2012-06-15 07:16:35 51°30.63 2°51.375 14.481 4.08145 33.345976 -2.458615
2012-06-15 07:17:35 51°30.823 2°51.443 14.4826 4.077408 33.309831 -2.458615
2012-06-15 07:18:35 51°31.016 2°51.499 14.4862 4.074609 33.285746 -2.458615
2012-06-15 07:19:35 51°31.21 2°51.561 14.4902 4.072536 33.261128 -2.458615
2012-06-15 07:20:35 51°31.404 2°51.629 14.484 4.070567 33.243178 -2.458615
2012-06-15 07:21:35 51°31.597 2°51.698 14.4786 4.068598 33.229514 -2.458615
2012-06-15 07:22:35 51°31.792 2°51.77 14.4785 4.063623 33.187737 -2.458615
2012-06-15 07:23:35 51°31.989 2°51.824 14.4873 4.061135 33.163642 -2.458615
2012-06-15 07:24:35 51°32.187 2°51.883 14.494 4.059891 33.145186 -2.458615
2012-06-15 07:25:35 51°32.384 2°51.955 14.4944 4.060409 33.146347 -2.458615
2012-06-15 07:26:35 51°32.581 2°52.036 14.4965 4.062379 33.162149 -2.458615
2012-06-15 07:27:35 51°32.78 2°52.114 14.5012 4.062171 33.158837 -2.458615
2012-06-15 07:28:35 51°32.954 2°52.281 14.5104 4.061964 33.148405 -2.458615
2012-06-15 07:29:35 51°33.1 2°52.515 14.5139 4.062068 33.146502 -2.458615
2012-06-15 07:30:35 51°33.234 2°52.764 14.5113 4.059684 33.119819 -2.458615
2012-06-15 07:31:35 51°33.369 2°53.016 14.518 4.056263 33.089395 -2.458615
2012-06-15 07:32:35 51°33.498 2°53.273 14.5128 4.054087 33.067454 -2.458615
2012-06-15 07:33:35 51°33.621 2°53.54 14.524 4.051599 33.049073 -2.458615
2012-06-15 07:34:35 51°33.742 2°53.813 14.5334 4.049734 33.020753 -2.458615
2012-06-15 07:35:35 51°33.838 2°54.108 14.5457 4.047142 32.992227 -2.458615
2012-06-15 07:36:35 51°33.876 2°54.428 14.5469 4.043618 32.94887 -2.458615
2012-06-15 07:37:35 51°33.828 2°54.738 14.5433 4.042064 32.933325 -2.458615
2012-06-15 07:38:35 51°33.716 2°55.005 14.5493 4.039473 32.908363 -2.458615
2012-06-15 07:39:35 51°33.598 2°55.265 14.5521 4.036882 32.884816 -2.458615
2012-06-15 07:40:35 51°33.526 2°55.524 14.5585 4.034809 32.865276 -2.458615
2012-06-15 07:41:35 51°33.48 2°55.753 14.5647 4.031492 32.828105 -2.458615
2012-06-15 07:42:35 51°33.444 2°55.947 14.5768 4.02859 32.794016 -2.458615
2012-06-15 07:43:35 51°33.402 2°56.121 14.5818 4.026724 32.769354 -2.458615
2012-06-15 07:44:35 51°33.333 2°56.165 14.585 4.02403 32.737182 -2.458615
2012-06-15 07:45:35 51°33.312 2°56.111 14.5802 4.022268 32.726803 -2.458615
2012-06-15 07:46:35 51°33.321 2°56.077 14.5841 4.021024 32.71832 -2.458615
2012-06-15 07:47:35 51°33.331 2°56.06 14.582 4.020506 32.712917 -2.458615
2012-06-15 07:48:35 51°33.341 2°56.054 14.5812 4.02061 32.715259 -2.458615
2012-06-15 07:49:35 51°33.354 2°56.053 14.5827 4.020092 32.712659 -2.458615
2012-06-15 07:50:35 51°33.364 2°56.042 14.5838 4.019677 32.707495 -2.458615
2012-06-15 07:51:35 51°33.375 2°56.026 14.5888 4.019988 32.704712 -2.458615
2012-06-15 07:52:35 51°33.385 2°56.009 14.5888 4.020817 32.710133 -2.458615
2012-06-15 07:53:35 51°33.38 2°55.978 14.5876 4.021024 32.709211 -2.458615
2012-06-15 07:54:35 51°33.339 2°55.97 14.5885 4.020921 32.710373 -2.458615
2012-06-15 07:55:35 51°33.278 2°55.964 14.5931 4.021128 32.710152 -2.458615
2012-06-15 07:56:35 51°33.229 2°55.96 14.5898 4.021232 32.711092 -2.458615
2012-06-15 07:57:35 51°33.204 2°55.973 14.5893 4.021024 32.710612 -2.458615
2012-06-15 07:58:35 51°33.193 2°55.996 14.5849 4.021024 32.709211 -2.458615
2012-06-15 07:59:35 51°33.193 2°56.022 14.5823 4.021232 32.713894 -2.458615
2012-06-15 08:00:35 51°33.174 2°56.042 14.5859 4.020817 32.711534 -2.458615
2012-06-15 08:01:35 51°33.164 2°56.016 14.5819 4.020402 32.709874 -2.458615
2012-06-15 08:02:35 51°33.178 2°55.993 14.5869 4.019988 32.706813 -2.458615
2012-06-15 08:03:35 51°33.204 2°55.969 14.5816 4.019781 32.702831 -2.458615
2012-06-15 08:04:35 51°33.236 2°55.937 14.5815 4.019677 32.704693 -2.458615
2012-06-15 08:05:35 51°33.265 2°55.91 14.5818 4.022268 32.731711 -2.458615
2012-06-15 08:06:35 51°33.288 2°55.9 14.5819 4.022579 32.734533 -2.458615
2012-06-15 08:07:35 51°33.307 2°55.899 14.5818 4.023201 32.738072 -2.458615
2012-06-15 08:08:35 51°33.326 2°55.904 14.5825 4.023304 32.740416 -2.458615
2012-06-15 08:09:35 51°33.343 2°55.911 14.5808 4.023512 32.741596 -2.458615
2012-06-15 08:10:35 51°33.376 2°55.891 14.5769 4.023719 32.743477 -2.458615
2012-06-15 08:11:35 51°33.436 2°55.939 14.584 4.024237 32.74818 -2.458615
2012-06-15 08:12:35 51°33.45 2°56.033 14.5768 4.025274 32.761097 -2.458615
2012-06-15 08:13:35 51°33.438 2°56.105 14.5817 4.025066 32.757811 -2.458615
2012-06-15 08:14:35 51°33.393 2°56.123 14.5844 4.024548 32.746092 -2.458615
2012-06-15 08:15:35 51°33.321 2°56.089 14.5807 4.023304 32.739714 -2.458615
2012-06-15 08:16:35 51°33.254 2°56.053 14.5807 4.022683 32.731266 -2.458615
2012-06-15 08:17:35 51°33.211 2°56.06 14.5829 4.02631 32.764889 -2.458615
2012-06-15 08:18:35 51°33.199 2°56.104 14.5842 4.027139 32.770309 -2.458615
2012-06-15 08:19:35 51°33.2 2°56.148 14.5836 4.02745 32.771727 -2.458615
2012-06-15 08:20:35 51°33.205 2°56.184 14.5829 4.027657 32.77431 -2.458615
2012-06-15 08:21:35 51°33.215 2°56.217 14.5798 4.02745 32.772429 -2.458615
2012-06-15 08:22:35 51°33.228 2°56.248 14.5867 4.027243 32.770548 -2.458615
2012-06-15 08:23:35 51°33.245 2°56.277 14.5883 4.028486 32.778325 -2.458615
2012-06-15 08:24:35 51°33.263 2°56.303 14.5872 4.028072 32.773861 -2.458615
2012-06-15 08:25:35 51°33.265 2°56.353 14.588 4.027657 32.77431 -2.458615
2012-06-15 08:26:35 51°33.226 2°56.368 14.5834 4.028901 32.780684 -2.458615
2012-06-15 08:27:35 51°33.194 2°56.32 14.5845 4.02745 32.775237 -2.458615
2012-06-15 08:28:35 51°33.167 2°56.274 14.5792 4.026932 32.770533 -2.458615
2012-06-15 08:29:35 51°33.154 2°56.252 14.5764 4.026932 32.771937 -2.458615
2012-06-15 08:30:35 51°33.151 2°56.246 14.579 4.026725 32.773566 -2.458615
2012-06-15 08:31:35 51°33.153 2°56.248 14.5773 4.027139 32.775925 -2.458615
2012-06-15 08:32:35 51°33.158 2°56.255 14.5753 4.027346 32.777807 -2.458615
2012-06-15 08:33:35 51°33.166 2°56.265 14.5746 4.027657 32.783439 -2.458615
2012-06-15 08:34:35 51°33.177 2°56.274 14.5706 4.027865 32.785321 -2.458615
2012-06-15 08:35:35 51°33.194 2°56.282 14.5739 4.027761 32.787893 -2.458615
2012-06-15 08:36:35 51°33.215 2°56.291 14.5749 4.027761 32.78719 -2.458615
2012-06-15 08:37:35 51°33.236 2°56.292 14.58 4.028072 32.787905 -2.458615
2012-06-15 08:38:35 51°33.255 2°56.286 14.5823 4.028797 32.79379 -2.458615
2012-06-15 08:39:35 51°33.27 2°56.281 14.5802 4.029626 32.797101 -2.458615
2012-06-15 08:40:35 51°33.28 2°56.281 14.5814 4.029937 32.802032 -2.458615
2012-06-15 08:41:35 51°33.288 2°56.286 14.5805 4.030352 32.802985 -2.458615
2012-06-15 08:42:35 51°33.296 2°56.294 14.5779 4.030456 32.806034 -2.458615
2012-06-15 08:43:35 51°33.304 2°56.306 14.5773 4.030974 32.814958 -2.458615
2012-06-15 08:44:35 51°33.296 2°56.297 14.572 4.031181 32.819653 -2.458615
2012-06-15 08:45:35 51°33.257 2°56.252 14.5719 4.031388 32.821535 -2.458615
2012-06-15 08:46:35 51°33.21 2°56.201 14.5686 4.032321 32.829303 -2.458615
2012-06-15 08:47:35 51°33.185 2°56.17 14.57 4.03315 32.840352 -2.458615
2012-06-15 08:48:35 51°33.174 2°56.155 14.5641 4.033254 32.842701 -2.458615
2012-06-15 08:49:35 51°33.17 2°56.148 14.5594 4.033772 32.84952 -2.458615
2012-06-15 08:50:35 51°33.169 2°56.147 14.558 4.033772 32.853746 -2.458615
2012-06-15 08:51:35 51°33.172 2°56.151 14.5522 4.034083 32.85798 -2.458615
2012-06-15 08:52:35 51°33.178 2°56.157 14.5542 4.034912 32.868332 -2.458615
2012-06-15 08:53:35 51°33.186 2°56.165 14.5485 4.03512 32.871625 -2.458615
2012-06-15 08:54:35 51°33.193 2°56.171 14.5481 4.035016 32.872798 -2.458615
2012-06-15 08:55:35 51°33.185 2°56.184 14.5497 4.034913 32.873971 -2.458615
2012-06-15 08:56:35 51°33.182 2°56.232 14.5552 4.035845 32.876103 -2.458615
2012-06-15 08:57:35 51°33.196 2°56.29 14.5537 4.036571 32.881286 -2.458615
2012-06-15 08:58:35 51°33.213 2°56.346 14.5451 4.036467 32.879639 -2.458615
2012-06-15 08:59:35 51°33.229 2°56.392 14.5499 4.036363 32.882928 -2.458615
2012-06-15 09:00:35 51°33.248 2°56.426 14.561 4.036156 32.876814 -2.458615
2012-06-15 09:01:35 51°33.273 2°56.443 14.5565 4.036571 32.879876 -2.458615
2012-06-15 09:02:37 51°33.3 2°56.435 14.5551 4.036674 32.881523 -2.458615
2012-06-15 09:03:38 51°33.316 2°56.415 14.5514 4.036985 32.882233 -2.458615
2012-06-15 09:04:38 51°33.362 2°56.445 14.5519 4.036363 32.882928 -2.458615
2012-06-15 09:05:36 51°33.437 2°56.378 14.5526 4.035845 32.879628 -2.458615
2012-06-15 09:06:35 51°33.547 2°56.193 14.5402 4.035949 32.88057 -2.458615
2012-06-15 09:07:35 51°33.683 2°55.963 14.5309 4.037089 32.898692 -2.458615
2012-06-15 09:08:35 51°33.787 2°55.709 14.5304 4.039369 32.928604 -2.458615
2012-06-15 09:09:35 51°33.839 2°55.421 14.529 4.041442 32.945335 -2.458615
2012-06-15 09:10:35 51°33.879 2°55.13 14.5224 4.046313 32.993887 -2.458615
2012-06-15 09:11:35 51°33.925 2°54.843 14.5275 4.050252 33.035392 -2.458615
2012-06-15 09:12:35 51°33.915 2°54.563 14.5293 4.054916 33.07642 -2.458615
2012-06-15 09:13:35 51°33.878 2°54.289 14.5132 4.060202 33.121693 -2.458615
2012-06-15 09:14:35 51°33.842 2°54.016 14.4994 4.066317 33.190902 -2.458615
2012-06-15 09:15:35 51°33.786 2°53.751 14.4911 4.068701 33.219752 -2.458615
2012-06-15 09:16:35 51°33.726 2°53.491 14.4836 4.072536 33.262558 -2.458615
2012-06-15 09:17:35 51°33.672 2°53.226 14.4834 4.078237 33.325986 -2.458615
2012-06-15 09:18:35 51°33.591 2°52.987 14.4733 4.08145 33.355294 -2.458615
2012-06-15 09:19:35 51°33.498 2°52.757 14.4224 4.086944 33.423374 -2.458615
2012-06-15 09:20:35 51°33.407 2°52.523 14.4104 4.092438 33.499473 -2.458615
2012-06-15 09:21:35 51°33.266 2°52.373 14.4002 4.095652 33.544006 -2.458615
2012-06-15 09:22:35 51°33.099 2°52.297 14.4036 4.097932 33.56992 -2.458615
2012-06-15 09:23:35 51°32.922 2°52.268 14.4139 4.098139 33.569646 -2.458615
2012-06-15 09:24:35 51°32.741 2°52.273 14.4303 4.096688 33.542645 -2.458615
2012-06-15 09:25:35 51°32.561 2°52.268 14.4467 4.09534 33.520223 -2.458615
2012-06-15 09:26:35 51°32.382 2°52.246 14.4623 4.093474 33.488758 -2.458615
2012-06-15 09:27:35 51°32.203 2°52.213 14.4634 4.091816 33.462813 -2.458615
2012-06-15 09:28:35 51°32.022 2°52.19 14.477 4.090157 33.443358 -2.458615
2012-06-15 09:29:35 51°31.842 2°52.178 14.4801 4.089017 33.424326 -2.458615
2012-06-15 09:30:35 51°31.661 2°52.149 14.4868 4.088188 33.411733 -2.458615
2012-06-15 09:31:35 51°31.48 2°52.116 14.4834 4.08798 33.409841 -2.458615
2012-06-15 09:32:35 51°31.301 2°52.081 14.4687 4.088395 33.416497 -2.458615
2012-06-15 09:33:35 51°31.12 2°52.047 14.4634 4.089224 33.431249 -2.458615
2012-06-15 09:34:35 51°30.938 2°52.036 14.4634 4.089639 33.444381 -2.458615
2012-06-15 09:35:35 51°30.756 2°52.036 14.4599 4.090261 33.4479 -2.458615
2012-06-15 09:36:35 51°30.572 2°52.035 14.4624 4.090779 33.455509 -2.458615
2012-06-15 09:37:35 51°30.39 2°52.02 14.4685 4.091919 33.461601 -2.458615
2012-06-15 09:38:35 51°30.208 2°52.008 14.5113 4.092645 33.465346 -2.458615
2012-06-15 09:39:35 51°30.025 2°52.029 14.608 4.093992 33.421599 -2.458615
2012-06-15 09:40:35 51°29.844 2°52.034 14.6486 4.096789 33.377636 -2.458615
2012-06-15 09:41:35 51°29.662 2°52.022 14.6643 4.096996 33.35239 -2.458615
2012-06-15 09:42:35 51°29.479 2°52.02 14.6737 4.097307 33.340955 -2.458615
2012-06-15 09:43:35 51°29.299 2°52.025 14.691 4.096996 33.326019 -2.458615
2012-06-15 09:44:35 51°29.116 2°52.033 14.6907 4.09316 33.281242 -2.458615
2012-06-15 09:45:35 51°28.937 2°52.018 14.6957 4.088703 33.240793 -2.458615
2012-06-15 09:46:35 51°28.754 2°52.006 14.699 4.085905 33.212562 -2.458615
2012-06-15 09:47:35 51°28.572 2°51.99 14.6931 4.085075 33.20362 -2.458615
2012-06-15 09:48:35 51°28.391 2°51.977 14.6993 4.085594 33.209741 -2.458615
2012-06-15 09:49:35 51°28.21 2°51.971 14.7001 4.086319 33.214195 -2.458615
2012-06-15 09:50:35 51°28.026 2°51.983 14.7094 4.088807 33.233216 -2.458615
2012-06-15 09:51:35 51°27.844 2°51.988 14.7161 4.089429 33.231053 -2.458615
2012-06-15 09:52:35 51°27.663 2°51.985 14.723 4.090672 33.239496 -2.458615
2012-06-15 09:53:35 51°27.483 2°51.984 14.7542 4.092849 33.247175 -2.458615
2012-06-15 09:54:35 51°27.301 2°51.987 14.774 4.0943 33.236933 -2.458615
2012-06-15 09:55:35 51°27.119 2°51.988 14.7993 4.095543 33.230493 -2.458615
2012-06-15 09:56:35 51°26.939 2°51.986 14.8273 4.096061 33.213959 -2.458615
2012-06-15 09:57:35 51°26.755 2°51.975 14.8583 4.095853 33.187355 -2.458615
2012-06-15 09:58:35 51°26.573 2°51.947 14.8774 4.095853 33.162667 -2.458615
2012-06-15 09:59:35 51°26.39 2°51.917 14.8809 4.096889 33.160759 -2.458615
2012-06-15 10:00:35 51°26.206 2°51.897 14.8885 4.098237 33.165888 -2.458615
2012-06-15 10:01:35 51°26.022 2°51.895 14.8891 4.098755 33.169161 -2.458615
2012-06-15 10:02:35 51°25.837 2°51.891 14.9158 4.098548 33.158838 -2.458615
2012-06-15 10:03:35 51°25.656 2°51.879 14.961 4.096785 33.117615 -2.458615
2012-06-15 10:04:35 51°25.473 2°51.867 14.9673 4.093882 33.061277 -2.458615
2012-06-15 10:05:35 51°25.293 2°51.836 14.9589 4.092017 33.04236 -2.458615
2012-06-15 10:06:35 51°25.113 2°51.81 14.9543 4.092639 33.052867 -2.458615
2012-06-15 10:07:35 51°24.931 2°51.791 14.9583 4.094193 33.070386 -2.458615
2012-06-15 10:08:35 51°24.747 2°51.79 14.9542 4.096266 33.086972 -2.458615
2012-06-15 10:09:35 51°24.566 2°51.754 14.9399 4.098858 33.112441 -2.458615
2012-06-15 10:10:35 51°24.384 2°51.731 14.9351 4.101035 33.146823 -2.458615
2012-06-15 10:11:35 51°24.2 2°51.715 14.9201 4.103626 33.173017 -2.458615
2012-06-15 10:12:35 51°24.015 2°51.701 14.8938 4.105596 33.206988 -2.458615
2012-06-15 10:13:35 51°23.831 2°51.66 14.8762 4.106011 33.229771 -2.458615
2012-06-15 10:14:35 51°23.648 2°51.616 14.8824 4.106322 33.239639 -2.458615
2012-06-15 10:15:35 51°23.464 2°51.589 14.898 4.1057 33.228373 -2.458615
2012-06-15 10:16:35 51°23.279 2°51.572 14.9085 4.103834 33.200942 -2.458615
2012-06-15 10:17:35 51°23.095 2°51.544 14.9068 4.103523 33.193201 -2.458615
2012-06-15 10:18:35 51°22.912 2°51.498 14.9012 4.105389 33.211459 -2.458615
2012-06-15 10:19:35 51°22.729 2°51.466 14.9091 4.107462 33.23653 -2.458615
2012-06-15 10:20:35 51°22.55 2°51.423 14.9568 4.108498 33.228258 -2.458615
2012-06-15 10:21:35 51°22.366 2°51.4 14.9709 4.10829 33.186256 -2.458615
2012-06-15 10:22:35 51°22.186 2°51.383 15.0132 4.10601 33.157264 -2.458615
2012-06-15 10:23:35 51°22.01 2°51.342 15.0578 4.095436 33.023518 -2.458615
2012-06-15 10:24:35 51°21.83 2°51.308 15.0577 4.089217 32.936907 -2.458615
2012-06-15 10:25:35 51°21.651 2°51.272 15.0782 4.093777 32.975816 -2.458615
2012-06-15 10:26:35 51°21.472 2°51.239 15.099 4.090978 32.934657 -2.458615
2012-06-15 10:27:35 51°21.293 2°51.198 15.1106 4.087869 32.889363 -2.458615
2012-06-15 10:28:35 51°21.112 2°51.179 15.1124 4.086832 32.874508 -2.458615
2012-06-15 10:29:35 51°20.929 2°51.172 15.1118 4.088076 32.882206 -2.458615
2012-06-15 10:30:35 51°20.747 2°51.141 15.1013 4.091082 32.911965 -2.458615
2012-06-15 10:31:35 51°20.564 2°51.111 15.0695 4.093984 32.949839 -2.458615
2012-06-15 10:32:35 51°20.382 2°51.07 15.0431 4.096991 33.004705 -2.458615
2012-06-15 10:33:35 51°20.199 2°51.035 15.0311 4.097405 33.026574 -2.458615
2012-06-15 10:34:35 51°20.015 2°51.003 15.0306 4.096058 33.022131 -2.458615
2012-06-15 10:35:35 51°19.833 2°50.946 15.032 4.095436 33.012346 -2.458615
2012-06-15 10:36:35 51°19.647 2°50.909 15.0248 4.097509 33.035188 -2.458615
2012-06-15 10:37:35 51°19.463 2°50.864 15.0173 4.100204 33.063635 -2.458615
2012-06-15 10:38:35 51°19.284 2°50.78 15.0071 4.103936 33.104925 -2.458615
2012-06-15 10:39:35 51°19.101 2°50.71 14.9972 4.107564 33.147411 -2.458615
2012-06-15 10:40:35 51°18.917 2°50.652 14.9799 4.111192 33.188523 -2.458615
2012-06-15 10:41:35 51°18.732 2°50.609 14.9838 4.113784 33.220316 -2.458615
2012-06-15 10:42:35 51°18.55 2°50.549 15.005 4.115339 33.229408 -2.458615
2012-06-15 10:43:35 51°18.369 2°50.487 15.0411 4.116168 33.217192 -2.458615
2012-06-15 10:44:35 51°18.188 2°50.431 15.1171 4.115131 33.177672 -2.458615
2012-06-15 10:45:35 51°18.009 2°50.363 15.2343 4.124458 33.176826 -2.458615
2012-06-15 10:46:35 51°17.827 2°50.303 15.2794 4.127463 33.128444 -2.458615
2012-06-15 10:47:35 51°17.647 2°50.227 15.3005 4.130676 33.121743 -2.458615
2012-06-15 10:48:35 51°17.466 2°50.154 15.3029 4.13503 33.14472 -2.458615
2012-06-15 10:49:35 51°17.281 2°50.109 15.2763 4.144671 33.23659 -2.458615
2012-06-15 10:50:35 51°17.101 2°50.05 15.2339 4.156696 33.367398 -2.458615
2012-06-15 10:51:35 51°16.924 2°49.982 15.2027 4.166338 33.486199 -2.458615
2012-06-15 10:52:35 51°16.752 2°49.884 15.1857 4.17318 33.569514 -2.458615
2012-06-15 10:53:35 51°16.575 2°49.795 15.1721 4.17712 33.619773 -2.458615
2012-06-15 10:54:35 51°16.394 2°49.726 15.1572 4.18023 33.661914 -2.458615
2012-06-15 10:55:35 51°16.215 2°49.641 15.1556 4.183341 33.699124 -2.458615
2012-06-15 10:56:35 51°16.039 2°49.548 15.2179 4.18417 33.695227 -2.458615
2012-06-15 10:57:35 51°15.854 2°49.482 15.24 4.180644 33.619614 -2.458615
2012-06-15 10:58:35 51°15.669 2°49.412 15.2484 4.177949 33.58057 -2.458615
2012-06-15 10:59:35 51°15.493 2°49.332 15.2283 4.182303 33.618254 -2.458615
2012-06-15 11:00:35 51°15.407 2°49.278 15.2386 4.190182 33.698226 -2.458615
2012-06-15 11:01:35 51°15.356 2°49.306 15.2862 4.192359 33.70574 -2.458615
2012-06-15 11:02:35 51°15.343 2°49.396 15.308 4.191425 33.661984 -2.458615
2012-06-15 11:03:35 51°15.326 2°49.496 15.323 4.189766 33.628041 -2.458615
2012-06-15 11:04:35 51°15.294 2°49.585 15.3287 4.186449 33.588431 -2.458615
2012-06-15 11:05:35 51°15.253 2°49.664 15.3289 4.183027 33.554251 -2.458615
2012-06-15 11:06:35 51°15.206 2°49.735 15.3293 4.180539 33.531254 -2.458615
2012-06-15 11:07:35 51°15.161 2°49.818 15.3318 4.178569 33.512201 -2.458615
2012-06-15 11:08:35 51°15.124 2°49.913 15.3401 4.178051 33.503343 -2.458615
2012-06-15 11:09:35 51°15.09 2°50.012 15.3506 4.180643 33.51883 -2.458615
2012-06-15 11:10:35 51°15.053 2°50.101 15.3423 4.184375 33.545227 -2.458615
2012-06-15 11:11:35 51°15.012 2°50.185 15.325 4.18707 33.579219 -2.458615
2012-06-15 11:12:35 51°14.967 2°50.259 15.3165 4.188729 33.60817 -2.458615
2012-06-15 11:13:35 51°14.92 2°50.328 15.3102 4.189041 33.615892 -2.458615
2012-06-15 11:14:35 51°14.871 2°50.388 15.3109 4.191632 33.642658 -2.458615
2012-06-15 11:15:35 51°14.825 2°50.456 15.3062 4.191218 33.639645 -2.458615
2012-06-15 11:16:35 51°14.786 2°50.54 15.3091 4.190285 33.634806 -2.458615
2012-06-15 11:17:35 51°14.749 2°50.63 15.3192 4.189041 33.618713 -2.458615
2012-06-15 11:18:35 51°14.709 2°50.714 15.336 4.188107 33.601185 -2.458615
2012-06-15 11:19:35 51°14.665 2°50.792 15.3434 4.187278 33.582484 -2.458615
2012-06-15 11:20:35 51°14.615 2°50.846 15.3509 4.184997 33.554313 -2.458615
2012-06-15 11:21:35 51°14.561 2°50.884 15.3607 4.183027 33.530348 -2.458615
2012-06-15 11:22:35 51°14.508 2°50.913 15.3761 4.181886 33.51101 -2.458615
2012-06-15 11:23:35 51°14.453 2°50.934 15.3907 4.182612 33.505577 -2.458615
2012-06-15 11:24:35 51°14.398 2°50.929 15.4006 4.183441 33.498973 -2.458615
2012-06-15 11:25:35 51°14.346 2°50.906 15.4057 4.181886 33.478759 -2.458615
2012-06-15 11:26:35 51°14.3 2°50.865 15.4057 4.181057 33.468542 -2.458615
2012-06-15 11:27:35 51°14.268 2°50.799 15.4078 4.180435 33.46438 -2.458615
2012-06-15 11:28:35 51°14.265 2°50.723 15.4089 4.181471 33.47225 -2.458615
2012-06-15 11:29:35 51°14.284 2°50.675 15.4079 4.182923 33.483827 -2.458615
2012-06-15 11:30:35 51°14.304 2°50.645 15.4121 4.183648 33.491017 -2.458615
2012-06-15 11:31:35 51°14.335 2°50.612 15.4118 4.184892 33.50074 -2.458615
2012-06-15 11:32:35 51°14.39 2°50.627 15.4015 4.185203 33.504222 -2.458615
2012-06-15 11:33:35 51°14.412 2°50.723 15.4015 4.184063 33.498229 -2.458615
2012-06-15 11:34:35 51°14.385 2°50.821 15.4057 4.183441 33.490564 -2.458615
2012-06-15 11:35:35 51°14.344 2°50.887 15.4053 4.182508 33.483621 -2.458615
2012-06-15 11:36:35 51°14.299 2°50.932 15.408 4.182508 33.480819 -2.458615
2012-06-15 11:37:35 51°14.254 2°50.961 15.4095 4.183337 33.486835 -2.458615
2012-06-15 11:38:35 51°14.207 2°50.942 15.4272 4.188624 33.525702 -2.458615
2012-06-15 11:39:35 51°14.162 2°50.892 15.3954 4.199303 33.612064 -2.458615
2012-06-15 11:40:35 51°14.137 2°50.833 15.4097 4.203968 33.658011 -2.458615
2012-06-15 11:41:35 51°14.126 2°50.772 15.3984 4.206975 33.689839 -2.458615
2012-06-15 11:42:35 51°14.11 2°50.705 15.397 4.206975 33.699706 -2.458615
2012-06-15 11:43:35 51°14.089 2°50.637 15.4081 4.20853 33.703755 -2.458615
2012-06-15 11:44:35 51°14.066 2°50.568 15.4039 4.209982 33.716744 -2.458615
2012-06-15 11:45:35 51°14.044 2°50.498 15.3857 4.209774 33.71912 -2.458615
2012-06-15 11:46:35 51°14.027 2°50.422 15.3668 4.209671 33.734421 -2.458615
2012-06-15 11:47:35 51°14.01 2°50.345 15.3751 4.210915 33.7498 -2.458615
2012-06-15 11:48:35 51°13.99 2°50.27 15.3478 4.21133 33.757754 -2.458615
2012-06-15 11:49:35 51°13.971 2°50.195 15.335 4.21019 33.763797 -2.458615
2012-06-15 11:50:35 51°13.949 2°50.121 15.3264 4.210916 33.784454 -2.458615
2012-06-15 11:51:35 51°13.926 2°50.048 15.3204 4.211538 33.793573 -2.458615
2012-06-15 11:52:35 51°13.904 2°49.972 15.3108 4.211642 33.806548 -2.458615
2012-06-15 11:53:35 51°13.885 2°49.895 15.3091 4.212471 33.817534 -2.458615
2012-06-15 11:54:35 51°13.871 2°49.815 15.2998 4.212679 33.822231 -2.458615
2012-06-15 11:55:35 51°13.869 2°49.73 15.2956 4.211849 33.823303 -2.458615
2012-06-15 11:56:35 51°13.876 2°49.644 15.2963 4.213093 33.835888 -2.458615
2012-06-15 11:57:35 51°13.902 2°49.563 15.2906 4.212782 33.835226 -2.458615
2012-06-15 11:58:35 51°13.942 2°49.49 15.2946 4.212575 33.833365 -2.458615
2012-06-15 11:59:35 51°13.995 2°49.446 15.2954 4.211538 33.820512 -2.458615
2012-06-15 12:00:35 51°14.053 2°49.446 15.2934 4.212368 33.829374 -2.458615
2012-06-15 12:01:35 51°14.106 2°49.503 15.3104 4.211849 33.824722 -2.458615
2012-06-15 12:02:35 51°14.143 2°49.596 15.315 4.213715 33.829405 -2.458615
2012-06-15 12:03:35 51°14.173 2°49.701 15.3098 4.21216 33.807654 -2.458615
2012-06-15 12:04:35 51°14.201 2°49.801 15.3188 4.20905 33.779759 -2.458615
2012-06-15 12:05:35 51°14.232 2°49.896 15.3322 4.208013 33.764798 -2.458615
2012-06-15 12:06:35 51°14.267 2°49.988 15.3407 4.207805 33.753034 -2.458615
2012-06-15 12:07:35 51°14.296 2°50.082 15.3479 4.206457 33.737419 -2.458615
2012-06-15 12:08:35 51°14.312 2°50.18 15.3507 4.205939 33.725708 -2.458615
2012-06-15 12:09:35 51°14.313 2°50.275 15.3643 4.204073 33.705458 -2.458615
2012-06-15 12:10:35 51°14.302 2°50.364 15.3675 4.203554 33.690231 -2.458615
2012-06-15 12:11:35 51°14.277 2°50.439 15.3798 4.201066 33.660903 -2.458615
2012-06-15 12:12:35 51°14.249 2°50.48 15.3774 4.200651 33.650148 -2.458615
2012-06-15 12:13:35 51°14.234 2°50.51 15.3735 4.200755 33.648963 -2.458615
2012-06-15 12:14:35 51°14.226 2°50.534 15.375 4.200962 33.653636 -2.458615
2012-06-15 12:15:35 51°14.212 2°50.579 15.3777 4.201169 33.653379 -2.458615
2012-06-15 12:16:35 51°14.223 2°50.668 15.373 4.203554 33.67754 -2.458615
2012-06-15 12:17:35 51°14.247 2°50.784 15.3703 4.206561 33.712216 -2.458615
2012-06-15 12:18:35 51°14.273 2°50.914 15.3752 4.206457 33.702823 -2.458615
2012-06-15 12:19:35 51°14.305 2°51.045 15.3737 4.208945 33.727923 -2.458615
2012-06-15 12:20:35 51°14.343 2°51.173 15.3655 4.209256 33.722945 -2.458615
2012-06-15 12:21:35 51°14.381 2°51.3 15.3876 4.205939 33.705941 -2.458615
2012-06-15 12:22:35 51°14.419 2°51.429 15.409 4.206768 33.695031 -2.458615
2012-06-15 12:23:35 51°14.453 2°51.562 15.4116 4.208426 33.693667 -2.458615
2012-06-15 12:24:35 51°14.482 2°51.697 15.4392 4.206042 33.667409 -2.458615
2012-06-15 12:25:35 51°14.516 2°51.829 15.4365 4.203449 33.618933 -2.458615
2012-06-15 12:26:35 51°14.555 2°51.957 15.4523 4.202516 33.621128 -2.458615
2012-06-15 12:27:35 51°14.593 2°52.085 15.468 4.20065 33.589712 -2.458615
2012-06-15 12:28:35 51°14.625 2°52.217 15.4752 4.194429 33.515953 -2.458615
2012-06-15 12:29:35 51°14.655 2°52.351 15.4955 4.1908 33.475881 -2.458615
2012-06-15 12:30:35 51°14.688 2°52.482 15.4881 4.191008 33.465166 -2.458615
2012-06-15 12:31:35 51°14.726 2°52.61 15.5192 4.187794 33.437894 -2.458615
2012-06-15 12:32:35 51°14.763 2°52.739 15.5078 4.188519 33.416498 -2.458615
2012-06-15 12:33:35 51°14.793 2°52.872 15.5217 4.18966 33.441291 -2.458615
2012-06-15 12:34:35 51°14.819 2°52.99 15.5294 4.174938 33.294113 -2.458615
2012-06-15 12:35:35 51°14.841 2°53.068 15.5542 4.167992 33.223954 -2.458615
2012-06-15 12:36:35 51°14.862 2°53.12 15.566 4.161564 33.15156 -2.458615
2012-06-15 12:37:35 51°14.88 2°53.162 15.5743 4.15607 33.092362 -2.458615
2012-06-15 12:38:35 51°14.907 2°53.217 15.5823 4.153478 33.063132 -2.458615
2012-06-15 12:39:35 51°14.916 2°53.379 15.5786 4.155551 33.080873 -2.458615
2012-06-15 12:40:35 51°14.919 2°53.656 15.7473 4.153789 33.070023 -2.458615
2012-06-15 12:41:35 51°14.899 2°53.975 15.668 4.168922 33.067093 -2.458615
2012-06-15 12:42:35 51°14.855 2°54.288 15.5958 2.786977 19.959304 -2.458615
2012-06-15 12:43:35 51°14.78 2°54.585 15.5452 0.290337 1.611838 -2.458615
2012-06-15 12:44:35 51°14.673 2°54.834 15.594 0.107485 0.573652 -2.458615
2012-06-15 12:45:35 51°14.541 2°55.025 15.6464 0.07633 0.406483 -2.458615
2012-06-15 12:46:38 51°14.417 2°55.162 15.6762 0.069236 0.370167 -2.458615
2012-06-15 12:47:39 51°14.303 2°55.257 15.7758 0.066563 0.356088 -2.458615
2012-06-15 12:48:38 51°14.184 2°55.359 15.7942 0.065535 0.348919 -2.458615
2012-06-15 12:49:39 51°14.064 2°55.449 15.7693 0.065123 0.338177 -2.458615
2012-06-15 12:50:38 51°13.968 2°55.525 15.7879 0.065329 0.339394 -2.458615
2012-06-15 12:51:38 51°13.863 2°55.603 15.8214 0.064404 0.339 -2.458615
2012-06-15 12:52:39 51°13.771 2°55.697 15.8333 0.063787 0.339628 -2.458615
2012-06-15 12:53:38 51°13.706 2°55.803 15.8943 0.062862 0.338388 -2.458615
2012-06-15 12:54:39 51°13.654 2°55.91 15.8945 0.061422 0.334078 -2.458615
2012-06-15 12:55:38 51°13.628 2°55.994 15.9197 0.0606 0.333128 -2.458615
2012-06-15 12:56:38 51°13.618 2°56.058 16.0469 0.059777 0.331386 -2.458615
2012-06-15 12:57:38 51°13.615 2°56.066 16.1057 0.058441 0.326306 -2.458615